sensor_id;sensor_type;location;lat;lon;timestamp;P1;durP1;ratioP1;P2;durP2;ratioP2
5833;SDS011;2943;48.012;10.968;2023-06-14T00:01:15;6.13;;;4.90;;
5833;SDS011;2943;48.012;10.968;2023-06-14T00:03:45;6.17;;;4.67;;
5833;SDS011;2943;48.012;10.968;2023-06-14T00:06:12;6.00;;;4.33;;
5833;SDS011;2943;48.012;10.968;2023-06-14T00:08:39;5.00;;;4.50;;
5833;SDS011;2943;48.012;10.968;2023-06-14T00:11:06;7.83;;;5.00;;
5833;SDS011;2943;48.012;10.968;2023-06-14T00:13:33;4.93;;;4.23;;
5833;SDS011;2943;48.012;10.968;2023-06-14T00:16:02;9.10;;;4.50;;
5833;SDS011;2943;48.012;10.968;2023-06-14T00:18:31;4.60;;;4.17;;
5833;SDS011;2943;48.012;10.968;2023-06-14T00:20:58;4.60;;;4.20;;
5833;SDS011;2943;48.012;10.968;2023-06-14T00:23:30;5.23;;;4.33;;
5833;SDS011;2943;48.012;10.968;2023-06-14T00:25:57;5.97;;;5.37;;
5833;SDS011;2943;48.012;10.968;2023-06-14T00:28:24;4.97;;;4.43;;
5833;SDS011;2943;48.012;10.968;2023-06-14T00:30:51;4.87;;;4.37;;
5833;SDS011;2943;48.012;10.968;2023-06-14T00:33:19;4.30;;;3.90;;
5833;SDS011;2943;48.012;10.968;2023-06-14T00:35:46;4.73;;;4.23;;
5833;SDS011;2943;48.012;10.968;2023-06-14T00:38:13;5.90;;;4.50;;
5833;SDS011;2943;48.012;10.968;2023-06-14T00:40:40;4.77;;;4.30;;
5833;SDS011;2943;48.012;10.968;2023-06-14T00:43:10;6.90;;;4.50;;
5833;SDS011;2943;48.012;10.968;2023-06-14T00:45:37;5.70;;;4.23;;
5833;SDS011;2943;48.012;10.968;2023-06-14T00:48:04;6.00;;;4.13;;
5833;SDS011;2943;48.012;10.968;2023-06-14T00:50:33;4.40;;;3.73;;
5833;SDS011;2943;48.012;10.968;2023-06-14T00:53:03;4.80;;;4.27;;
5833;SDS011;2943;48.012;10.968;2023-06-14T00:55:30;5.90;;;4.60;;
5833;SDS011;2943;48.012;10.968;2023-06-14T00:57:57;5.03;;;4.57;;
5833;SDS011;2943;48.012;10.968;2023-06-14T01:00:25;4.67;;;4.27;;
5833;SDS011;2943;48.012;10.968;2023-06-14T01:02:54;6.27;;;4.57;;
5833;SDS011;2943;48.012;10.968;2023-06-14T01:05:22;4.83;;;4.37;;
5833;SDS011;2943;48.012;10.968;2023-06-14T01:07:55;8.23;;;4.60;;
5833;SDS011;2943;48.012;10.968;2023-06-14T01:10:33;5.70;;;3.87;;
5833;SDS011;2943;48.012;10.968;2023-06-14T01:13:08;4.60;;;4.00;;
5833;SDS011;2943;48.012;10.968;2023-06-14T01:15:39;5.57;;;4.83;;
5833;SDS011;2943;48.012;10.968;2023-06-14T01:18:10;6.20;;;4.97;;
5833;SDS011;2943;48.012;10.968;2023-06-14T01:20:42;5.13;;;4.40;;
5833;SDS011;2943;48.012;10.968;2023-06-14T01:23:16;5.33;;;4.50;;
5833;SDS011;2943;48.012;10.968;2023-06-14T01:25:45;6.17;;;4.93;;
5833;SDS011;2943;48.012;10.968;2023-06-14T01:28:15;5.20;;;4.20;;
5833;SDS011;2943;48.012;10.968;2023-06-14T01:30:44;5.63;;;4.27;;
5833;SDS011;2943;48.012;10.968;2023-06-14T01:33:12;9.80;;;4.70;;
5833;SDS011;2943;48.012;10.968;2023-06-14T01:35:41;4.90;;;4.27;;
5833;SDS011;2943;48.012;10.968;2023-06-14T01:38:10;6.07;;;4.50;;
5833;SDS011;2943;48.012;10.968;2023-06-14T01:40:40;6.83;;;5.00;;
5833;SDS011;2943;48.012;10.968;2023-06-14T01:43:08;5.20;;;4.30;;
5833;SDS011;2943;48.012;10.968;2023-06-14T01:45:38;5.03;;;4.33;;
5833;SDS011;2943;48.012;10.968;2023-06-14T01:48:07;4.73;;;4.27;;
5833;SDS011;2943;48.012;10.968;2023-06-14T01:50:34;4.70;;;4.20;;
5833;SDS011;2943;48.012;10.968;2023-06-14T01:53:01;5.03;;;4.50;;
5833;SDS011;2943;48.012;10.968;2023-06-14T01:55:28;6.73;;;5.10;;
5833;SDS011;2943;48.012;10.968;2023-06-14T01:58:04;8.97;;;4.20;;
5833;SDS011;2943;48.012;10.968;2023-06-14T02:00:31;5.50;;;4.40;;
5833;SDS011;2943;48.012;10.968;2023-06-14T02:02:58;5.00;;;4.03;;
5833;SDS011;2943;48.012;10.968;2023-06-14T02:05:26;5.37;;;4.83;;
5833;SDS011;2943;48.012;10.968;2023-06-14T02:07:55;5.37;;;4.17;;
5833;SDS011;2943;48.012;10.968;2023-06-14T02:10:22;17.63;;;5.07;;
5833;SDS011;2943;48.012;10.968;2023-06-14T02:12:50;5.47;;;4.47;;
5833;SDS011;2943;48.012;10.968;2023-06-14T02:15:19;5.93;;;5.33;;
5833;SDS011;2943;48.012;10.968;2023-06-14T02:17:47;9.03;;;5.00;;
5833;SDS011;2943;48.012;10.968;2023-06-14T02:20:15;5.00;;;4.30;;
5833;SDS011;2943;48.012;10.968;2023-06-14T02:22:43;5.33;;;4.83;;
5833;SDS011;2943;48.012;10.968;2023-06-14T02:25:11;8.60;;;4.40;;
5833;SDS011;2943;48.012;10.968;2023-06-14T02:27:39;7.70;;;4.80;;
5833;SDS011;2943;48.012;10.968;2023-06-14T02:30:06;6.43;;;4.40;;
5833;SDS011;2943;48.012;10.968;2023-06-14T02:32:35;7.60;;;4.97;;
5833;SDS011;2943;48.012;10.968;2023-06-14T02:35:04;6.20;;;4.53;;
5833;SDS011;2943;48.012;10.968;2023-06-14T02:37:33;5.37;;;4.60;;
5833;SDS011;2943;48.012;10.968;2023-06-14T02:40:00;5.70;;;5.10;;
5833;SDS011;2943;48.012;10.968;2023-06-14T02:42:27;6.40;;;4.93;;
5833;SDS011;2943;48.012;10.968;2023-06-14T02:44:54;5.37;;;4.43;;
5833;SDS011;2943;48.012;10.968;2023-06-14T02:47:21;9.53;;;5.00;;
5833;SDS011;2943;48.012;10.968;2023-06-14T02:49:51;5.83;;;4.40;;
5833;SDS011;2943;48.012;10.968;2023-06-14T02:52:18;4.57;;;4.00;;
5833;SDS011;2943;48.012;10.968;2023-06-14T02:54:47;5.40;;;4.90;;
5833;SDS011;2943;48.012;10.968;2023-06-14T02:57:16;6.50;;;4.87;;
5833;SDS011;2943;48.012;10.968;2023-06-14T02:59:43;7.00;;;5.10;;
5833;SDS011;2943;48.012;10.968;2023-06-14T03:02:10;6.67;;;5.10;;
5833;SDS011;2943;48.012;10.968;2023-06-14T03:04:37;11.60;;;5.33;;
5833;SDS011;2943;48.012;10.968;2023-06-14T03:07:06;8.13;;;4.83;;
5833;SDS011;2943;48.012;10.968;2023-06-14T03:09:34;5.23;;;4.50;;
5833;SDS011;2943;48.012;10.968;2023-06-14T03:12:07;5.27;;;4.50;;
5833;SDS011;2943;48.012;10.968;2023-06-14T03:14:34;6.53;;;5.00;;
5833;SDS011;2943;48.012;10.968;2023-06-14T03:17:03;6.63;;;5.17;;
5833;SDS011;2943;48.012;10.968;2023-06-14T03:19:33;6.60;;;4.97;;
5833;SDS011;2943;48.012;10.968;2023-06-14T03:22:00;7.60;;;4.17;;
5833;SDS011;2943;48.012;10.968;2023-06-14T03:24:28;8.70;;;5.07;;
5833;SDS011;2943;48.012;10.968;2023-06-14T03:26:57;5.90;;;5.27;;
5833;SDS011;2943;48.012;10.968;2023-06-14T03:29:24;6.17;;;4.77;;
5833;SDS011;2943;48.012;10.968;2023-06-14T03:31:58;8.90;;;5.13;;
5833;SDS011;2943;48.012;10.968;2023-06-14T03:34:26;6.80;;;5.37;;
5833;SDS011;2943;48.012;10.968;2023-06-14T03:36:53;6.60;;;5.90;;
5833;SDS011;2943;48.012;10.968;2023-06-14T03:39:20;10.77;;;5.20;;
5833;SDS011;2943;48.012;10.968;2023-06-14T03:41:49;6.73;;;5.20;;
5833;SDS011;2943;48.012;10.968;2023-06-14T03:44:17;6.13;;;5.47;;
5833;SDS011;2943;48.012;10.968;2023-06-14T03:46:44;6.37;;;4.77;;
5833;SDS011;2943;48.012;10.968;2023-06-14T03:49:11;6.03;;;5.07;;
5833;SDS011;2943;48.012;10.968;2023-06-14T03:51:38;6.50;;;5.23;;
5833;SDS011;2943;48.012;10.968;2023-06-14T03:54:06;5.30;;;4.80;;
5833;SDS011;2943;48.012;10.968;2023-06-14T03:56:35;6.63;;;4.83;;
5833;SDS011;2943;48.012;10.968;2023-06-14T03:59:04;6.70;;;5.87;;
5833;SDS011;2943;48.012;10.968;2023-06-14T04:01:30;6.80;;;5.73;;
5833;SDS011;2943;48.012;10.968;2023-06-14T04:03:58;7.10;;;5.00;;
5833;SDS011;2943;48.012;10.968;2023-06-14T04:06:26;6.40;;;5.70;;
5833;SDS011;2943;48.012;10.968;2023-06-14T04:08:58;7.53;;;5.60;;
5833;SDS011;2943;48.012;10.968;2023-06-14T04:11:30;6.40;;;4.87;;
5833;SDS011;2943;48.012;10.968;2023-06-14T04:13:57;8.60;;;5.17;;
5833;SDS011;2943;48.012;10.968;2023-06-14T04:16:26;5.37;;;4.87;;
5833;SDS011;2943;48.012;10.968;2023-06-14T04:18:53;6.77;;;5.33;;
5833;SDS011;2943;48.012;10.968;2023-06-14T04:21:20;10.20;;;5.80;;
5833;SDS011;2943;48.012;10.968;2023-06-14T04:23:49;7.40;;;5.23;;
5833;SDS011;2943;48.012;10.968;2023-06-14T04:26:17;7.27;;;5.70;;
5833;SDS011;2943;48.012;10.968;2023-06-14T04:28:45;15.10;;;6.30;;
5833;SDS011;2943;48.012;10.968;2023-06-14T04:31:12;10.93;;;6.40;;
5833;SDS011;2943;48.012;10.968;2023-06-14T04:33:43;7.20;;;5.37;;
5833;SDS011;2943;48.012;10.968;2023-06-14T04:36:11;11.63;;;5.30;;
5833;SDS011;2943;48.012;10.968;2023-06-14T04:38:39;5.47;;;4.80;;
5833;SDS011;2943;48.012;10.968;2023-06-14T04:41:06;6.30;;;5.30;;
5833;SDS011;2943;48.012;10.968;2023-06-14T04:43:36;5.77;;;4.97;;
5833;SDS011;2943;48.012;10.968;2023-06-14T04:46:04;6.10;;;5.00;;
5833;SDS011;2943;48.012;10.968;2023-06-14T04:48:35;7.20;;;5.40;;
5833;SDS011;2943;48.012;10.968;2023-06-14T04:51:07;6.60;;;5.93;;
5833;SDS011;2943;48.012;10.968;2023-06-14T04:53:34;6.17;;;5.57;;
5833;SDS011;2943;48.012;10.968;2023-06-14T04:56:04;5.47;;;4.97;;
5833;SDS011;2943;48.012;10.968;2023-06-14T04:58:31;5.93;;;4.97;;
5833;SDS011;2943;48.012;10.968;2023-06-14T05:00:58;9.70;;;4.43;;
5833;SDS011;2943;48.012;10.968;2023-06-14T05:03:28;5.97;;;4.80;;
5833;SDS011;2943;48.012;10.968;2023-06-14T05:05:59;7.53;;;4.90;;
5833;SDS011;2943;48.012;10.968;2023-06-14T05:08:29;7.90;;;5.80;;
5833;SDS011;2943;48.012;10.968;2023-06-14T05:10:56;5.30;;;4.33;;
5833;SDS011;2943;48.012;10.968;2023-06-14T05:13:23;7.60;;;4.30;;
5833;SDS011;2943;48.012;10.968;2023-06-14T05:15:53;6.07;;;4.90;;
5833;SDS011;2943;48.012;10.968;2023-06-14T05:18:20;7.00;;;4.77;;
5833;SDS011;2943;48.012;10.968;2023-06-14T05:20:47;5.00;;;4.40;;
5833;SDS011;2943;48.012;10.968;2023-06-14T05:23:14;5.60;;;4.90;;
5833;SDS011;2943;48.012;10.968;2023-06-14T05:25:44;9.47;;;5.67;;
5833;SDS011;2943;48.012;10.968;2023-06-14T05:28:11;7.83;;;5.10;;
5833;SDS011;2943;48.012;10.968;2023-06-14T05:30:41;7.27;;;4.60;;
5833;SDS011;2943;48.012;10.968;2023-06-14T05:33:09;6.23;;;4.60;;
5833;SDS011;2943;48.012;10.968;2023-06-14T05:35:38;8.47;;;4.63;;
5833;SDS011;2943;48.012;10.968;2023-06-14T05:38:05;6.50;;;4.60;;
5833;SDS011;2943;48.012;10.968;2023-06-14T05:40:32;9.20;;;4.97;;
5833;SDS011;2943;48.012;10.968;2023-06-14T05:43:00;5.70;;;4.40;;
5833;SDS011;2943;48.012;10.968;2023-06-14T05:45:27;4.57;;;4.07;;
5833;SDS011;2943;48.012;10.968;2023-06-14T05:47:55;6.13;;;4.33;;
5833;SDS011;2943;48.012;10.968;2023-06-14T05:50:22;10.30;;;4.70;;
5833;SDS011;2943;48.012;10.968;2023-06-14T05:52:49;8.70;;;4.63;;
5833;SDS011;2943;48.012;10.968;2023-06-14T05:55:16;6.73;;;4.20;;
5833;SDS011;2943;48.012;10.968;2023-06-14T05:57:45;5.57;;;5.00;;
5833;SDS011;2943;48.012;10.968;2023-06-14T06:00:15;6.00;;;4.77;;
5833;SDS011;2943;48.012;10.968;2023-06-14T06:02:43;5.73;;;5.20;;
5833;SDS011;2943;48.012;10.968;2023-06-14T06:05:13;8.07;;;5.20;;
5833;SDS011;2943;48.012;10.968;2023-06-14T06:07:41;6.23;;;5.17;;
5833;SDS011;2943;48.012;10.968;2023-06-14T06:10:09;6.20;;;4.23;;
5833;SDS011;2943;48.012;10.968;2023-06-14T06:12:36;4.87;;;3.87;;
5833;SDS011;2943;48.012;10.968;2023-06-14T06:15:03;4.80;;;4.30;;
5833;SDS011;2943;48.012;10.968;2023-06-14T06:17:32;6.93;;;4.73;;
5833;SDS011;2943;48.012;10.968;2023-06-14T06:19:59;6.90;;;4.72;;
5833;SDS011;2943;48.012;10.968;2023-06-14T06:22:28;5.17;;;4.60;;
5833;SDS011;2943;48.012;10.968;2023-06-14T06:24:55;6.83;;;4.80;;
5833;SDS011;2943;48.012;10.968;2023-06-14T06:27:23;5.43;;;4.30;;
5833;SDS011;2943;48.012;10.968;2023-06-14T06:29:51;5.07;;;4.57;;
5833;SDS011;2943;48.012;10.968;2023-06-14T06:32:23;5.70;;;4.70;;
5833;SDS011;2943;48.012;10.968;2023-06-14T06:35:05;8.63;;;5.03;;
5833;SDS011;2943;48.012;10.968;2023-06-14T06:37:51;5.20;;;4.70;;
5833;SDS011;2943;48.012;10.968;2023-06-14T06:40:19;6.70;;;5.00;;
5833;SDS011;2943;48.012;10.968;2023-06-14T06:42:46;5.50;;;4.50;;
5833;SDS011;2943;48.012;10.968;2023-06-14T06:45:13;6.90;;;5.63;;
5833;SDS011;2943;48.012;10.968;2023-06-14T06:47:40;5.23;;;4.27;;
5833;SDS011;2943;48.012;10.968;2023-06-14T06:50:09;6.40;;;4.73;;
5833;SDS011;2943;48.012;10.968;2023-06-14T06:52:36;11.80;;;4.50;;
5833;SDS011;2943;48.012;10.968;2023-06-14T06:55:03;6.30;;;4.30;;
5833;SDS011;2943;48.012;10.968;2023-06-14T06:57:33;4.83;;;4.33;;
5833;SDS011;2943;48.012;10.968;2023-06-14T07:00:01;5.20;;;4.70;;
5833;SDS011;2943;48.012;10.968;2023-06-14T07:02:29;6.63;;;5.13;;
5833;SDS011;2943;48.012;10.968;2023-06-14T07:04:56;9.20;;;4.90;;
5833;SDS011;2943;48.012;10.968;2023-06-14T07:07:24;5.07;;;4.57;;
5833;SDS011;2943;48.012;10.968;2023-06-14T07:09:52;7.47;;;4.83;;
5833;SDS011;2943;48.012;10.968;2023-06-14T07:12:20;4.40;;;4.00;;
5833;SDS011;2943;48.012;10.968;2023-06-14T07:14:47;5.00;;;4.43;;
5833;SDS011;2943;48.012;10.968;2023-06-14T07:17:14;13.77;;;4.87;;
5833;SDS011;2943;48.012;10.968;2023-06-14T07:19:40;9.60;;;4.50;;
5833;SDS011;2943;48.012;10.968;2023-06-14T07:22:07;5.43;;;4.80;;
5833;SDS011;2943;48.012;10.968;2023-06-14T07:24:36;11.50;;;5.00;;
5833;SDS011;2943;48.012;10.968;2023-06-14T07:27:03;9.50;;;4.83;;
5833;SDS011;2943;48.012;10.968;2023-06-14T07:29:30;7.30;;;4.43;;
5833;SDS011;2943;48.012;10.968;2023-06-14T07:31:57;6.10;;;4.63;;
5833;SDS011;2943;48.012;10.968;2023-06-14T07:34:24;7.10;;;4.80;;
5833;SDS011;2943;48.012;10.968;2023-06-14T07:36:52;7.13;;;4.87;;
5833;SDS011;2943;48.012;10.968;2023-06-14T07:39:19;8.10;;;4.60;;
5833;SDS011;2943;48.012;10.968;2023-06-14T07:41:48;4.67;;;4.27;;
5833;SDS011;2943;48.012;10.968;2023-06-14T07:44:15;9.03;;;4.93;;
5833;SDS011;2943;48.012;10.968;2023-06-14T07:46:42;7.37;;;4.67;;
5833;SDS011;2943;48.012;10.968;2023-06-14T07:49:11;8.10;;;5.67;;
5833;SDS011;2943;48.012;10.968;2023-06-14T07:51:38;5.07;;;4.03;;
5833;SDS011;2943;48.012;10.968;2023-06-14T07:54:05;5.67;;;4.40;;
5833;SDS011;2943;48.012;10.968;2023-06-14T07:56:33;7.57;;;4.53;;
5833;SDS011;2943;48.012;10.968;2023-06-14T07:59:02;8.37;;;5.10;;
5833;SDS011;2943;48.012;10.968;2023-06-14T08:01:28;5.17;;;3.97;;
5833;SDS011;2943;48.012;10.968;2023-06-14T08:03:55;7.00;;;5.30;;
5833;SDS011;2943;48.012;10.968;2023-06-14T08:06:23;4.93;;;4.43;;
5833;SDS011;2943;48.012;10.968;2023-06-14T08:08:51;6.07;;;4.73;;
5833;SDS011;2943;48.012;10.968;2023-06-14T08:11:18;6.03;;;4.37;;
5833;SDS011;2943;48.012;10.968;2023-06-14T08:13:46;4.80;;;4.10;;
5833;SDS011;2943;48.012;10.968;2023-06-14T08:16:14;8.23;;;4.30;;
5833;SDS011;2943;48.012;10.968;2023-06-14T08:18:40;5.03;;;4.50;;
5833;SDS011;2943;48.012;10.968;2023-06-14T08:21:07;6.40;;;4.20;;
5833;SDS011;2943;48.012;10.968;2023-06-14T08:23:35;11.30;;;3.90;;
5833;SDS011;2943;48.012;10.968;2023-06-14T08:26:02;6.57;;;4.23;;
5833;SDS011;2943;48.012;10.968;2023-06-14T08:28:29;8.50;;;3.93;;
5833;SDS011;2943;48.012;10.968;2023-06-14T08:30:56;5.80;;;3.93;;
5833;SDS011;2943;48.012;10.968;2023-06-14T08:33:25;5.70;;;3.80;;
5833;SDS011;2943;48.012;10.968;2023-06-14T08:35:52;5.50;;;4.10;;
5833;SDS011;2943;48.012;10.968;2023-06-14T08:38:18;7.00;;;4.10;;
5833;SDS011;2943;48.012;10.968;2023-06-14T08:40:46;6.20;;;3.97;;
5833;SDS011;2943;48.012;10.968;2023-06-14T08:43:16;7.80;;;3.87;;
5833;SDS011;2943;48.012;10.968;2023-06-14T08:45:43;4.10;;;3.70;;
5833;SDS011;2943;48.012;10.968;2023-06-14T08:48:14;6.70;;;4.07;;
5833;SDS011;2943;48.012;10.968;2023-06-14T08:50:43;5.63;;;3.70;;
5833;SDS011;2943;48.012;10.968;2023-06-14T08:53:14;5.10;;;3.93;;
5833;SDS011;2943;48.012;10.968;2023-06-14T08:55:47;6.33;;;4.20;;
5833;SDS011;2943;48.012;10.968;2023-06-14T08:58:15;5.10;;;3.40;;
5833;SDS011;2943;48.012;10.968;2023-06-14T09:00:42;6.10;;;3.90;;
5833;SDS011;2943;48.012;10.968;2023-06-14T09:03:09;5.23;;;3.90;;
5833;SDS011;2943;48.012;10.968;2023-06-14T09:05:38;7.33;;;3.90;;
5833;SDS011;2943;48.012;10.968;2023-06-14T09:08:07;6.33;;;4.47;;
5833;SDS011;2943;48.012;10.968;2023-06-14T09:10:35;5.73;;;3.73;;
5833;SDS011;2943;48.012;10.968;2023-06-14T09:13:02;9.83;;;4.07;;
5833;SDS011;2943;48.012;10.968;2023-06-14T09:15:29;8.03;;;4.50;;
5833;SDS011;2943;48.012;10.968;2023-06-14T09:17:56;4.43;;;3.87;;
5833;SDS011;2943;48.012;10.968;2023-06-14T09:20:24;5.97;;;3.83;;
5833;SDS011;2943;48.012;10.968;2023-06-14T09:22:51;4.60;;;3.90;;
5833;SDS011;2943;48.012;10.968;2023-06-14T09:25:23;5.70;;;4.20;;
5833;SDS011;2943;48.012;10.968;2023-06-14T09:27:52;5.00;;;3.80;;
5833;SDS011;2943;48.012;10.968;2023-06-14T09:30:19;4.90;;;4.07;;
5833;SDS011;2943;48.012;10.968;2023-06-14T09:32:47;5.70;;;4.33;;
5833;SDS011;2943;48.012;10.968;2023-06-14T09:35:14;6.47;;;3.57;;
5833;SDS011;2943;48.012;10.968;2023-06-14T09:37:44;5.70;;;3.47;;
5833;SDS011;2943;48.012;10.968;2023-06-14T09:40:11;5.07;;;3.30;;
5833;SDS011;2943;48.012;10.968;2023-06-14T09:42:41;4.13;;;3.73;;
5833;SDS011;2943;48.012;10.968;2023-06-14T09:45:10;7.43;;;4.00;;
5833;SDS011;2943;48.012;10.968;2023-06-14T09:47:39;5.03;;;4.20;;
5833;SDS011;2943;48.012;10.968;2023-06-14T09:50:06;5.33;;;3.70;;
5833;SDS011;2943;48.012;10.968;2023-06-14T09:52:33;9.37;;;4.33;;
5833;SDS011;2943;48.012;10.968;2023-06-14T09:55:01;8.20;;;3.60;;
5833;SDS011;2943;48.012;10.968;2023-06-14T09:57:38;6.20;;;3.80;;
5833;SDS011;2943;48.012;10.968;2023-06-14T10:00:11;5.70;;;3.90;;
5833;SDS011;2943;48.012;10.968;2023-06-14T10:02:41;8.00;;;4.10;;
5833;SDS011;2943;48.012;10.968;2023-06-14T10:05:15;10.53;;;4.40;;
5833;SDS011;2943;48.012;10.968;2023-06-14T10:07:48;11.53;;;4.30;;
5833;SDS011;2943;48.012;10.968;2023-06-14T10:10:21;4.20;;;3.80;;
5833;SDS011;2943;48.012;10.968;2023-06-14T10:12:49;6.97;;;4.33;;
5833;SDS011;2943;48.012;10.968;2023-06-14T10:15:18;5.83;;;3.87;;
5833;SDS011;2943;48.012;10.968;2023-06-14T10:17:49;5.50;;;4.33;;
5833;SDS011;2943;48.012;10.968;2023-06-14T10:20:23;5.17;;;4.33;;
5833;SDS011;2943;48.012;10.968;2023-06-14T10:22:58;6.47;;;4.37;;
5833;SDS011;2943;48.012;10.968;2023-06-14T10:25:34;5.10;;;4.33;;
5833;SDS011;2943;48.012;10.968;2023-06-14T10:28:18;6.13;;;4.30;;
5833;SDS011;2943;48.012;10.968;2023-06-14T10:31:03;7.90;;;3.80;;
5833;SDS011;2943;48.012;10.968;2023-06-14T10:33:32;5.10;;;3.97;;
5833;SDS011;2943;48.012;10.968;2023-06-14T10:39:04;4.50;;;4.10;;
5833;SDS011;2943;48.012;10.968;2023-06-14T10:41:34;4.20;;;3.80;;
5833;SDS011;2943;48.012;10.968;2023-06-14T10:44:11;4.90;;;4.00;;
5833;SDS011;2943;48.012;10.968;2023-06-14T10:47:09;11.30;;;3.47;;
5833;SDS011;2943;48.012;10.968;2023-06-14T10:49:38;3.93;;;3.53;;
5833;SDS011;2943;48.012;10.968;2023-06-14T10:52:10;8.00;;;3.53;;
5833;SDS011;2943;48.012;10.968;2023-06-14T10:54:55;5.87;;;3.97;;
5833;SDS011;2943;48.012;10.968;2023-06-14T10:57:41;6.80;;;3.57;;
5833;SDS011;2943;48.012;10.968;2023-06-14T11:00:13;4.70;;;3.70;;
5833;SDS011;2943;48.012;10.968;2023-06-14T11:05:54;8.73;;;4.03;;
5833;SDS011;2943;48.012;10.968;2023-06-14T11:08:27;4.67;;;4.13;;
5833;SDS011;2943;48.012;10.968;2023-06-14T11:11:07;8.10;;;3.60;;
5833;SDS011;2943;48.012;10.968;2023-06-14T11:13:36;11.00;;;3.90;;
5833;SDS011;2943;48.012;10.968;2023-06-14T11:16:13;6.10;;;3.70;;
5833;SDS011;2943;48.012;10.968;2023-06-14T11:18:40;9.50;;;3.70;;
5833;SDS011;2943;48.012;10.968;2023-06-14T11:21:08;3.70;;;3.33;;
5833;SDS011;2943;48.012;10.968;2023-06-14T11:23:35;5.37;;;3.77;;
5833;SDS011;2943;48.012;10.968;2023-06-14T11:26:02;6.70;;;3.90;;
5833;SDS011;2943;48.012;10.968;2023-06-14T11:28:37;6.33;;;3.80;;
5833;SDS011;2943;48.012;10.968;2023-06-14T11:31:05;6.27;;;4.23;;
5833;SDS011;2943;48.012;10.968;2023-06-14T11:33:34;4.37;;;3.20;;
5833;SDS011;2943;48.012;10.968;2023-06-14T11:36:03;6.17;;;3.57;;
5833;SDS011;2943;48.012;10.968;2023-06-14T11:38:34;9.43;;;4.00;;
5833;SDS011;2943;48.012;10.968;2023-06-14T11:41:02;6.07;;;4.10;;
5833;SDS011;2943;48.012;10.968;2023-06-14T11:43:30;10.93;;;4.10;;
5833;SDS011;2943;48.012;10.968;2023-06-14T11:46:00;6.63;;;3.90;;
5833;SDS011;2943;48.012;10.968;2023-06-14T11:48:38;3.80;;;3.30;;
5833;SDS011;2943;48.012;10.968;2023-06-14T11:51:06;4.00;;;3.60;;
5833;SDS011;2943;48.012;10.968;2023-06-14T11:53:34;6.70;;;4.30;;
5833;SDS011;2943;48.012;10.968;2023-06-14T11:56:01;10.00;;;3.80;;
5833;SDS011;2943;48.012;10.968;2023-06-14T11:58:29;6.20;;;4.10;;
5833;SDS011;2943;48.012;10.968;2023-06-14T12:00:56;4.87;;;3.73;;
5833;SDS011;2943;48.012;10.968;2023-06-14T12:03:25;9.60;;;3.80;;
5833;SDS011;2943;48.012;10.968;2023-06-14T12:06:05;3.70;;;3.40;;
5833;SDS011;2943;48.012;10.968;2023-06-14T12:08:38;4.00;;;3.70;;
5833;SDS011;2943;48.012;10.968;2023-06-14T12:11:07;7.17;;;3.80;;
5833;SDS011;2943;48.012;10.968;2023-06-14T12:13:40;9.20;;;4.50;;
5833;SDS011;2943;48.012;10.968;2023-06-14T12:16:08;7.40;;;3.57;;
5833;SDS011;2943;48.012;10.968;2023-06-14T12:18:36;5.53;;;3.57;;
5833;SDS011;2943;48.012;10.968;2023-06-14T12:21:06;5.37;;;3.90;;
5833;SDS011;2943;48.012;10.968;2023-06-14T12:23:41;6.30;;;4.10;;
5833;SDS011;2943;48.012;10.968;2023-06-14T12:26:11;4.20;;;3.80;;
5833;SDS011;2943;48.012;10.968;2023-06-14T12:28:39;4.00;;;3.60;;
5833;SDS011;2943;48.012;10.968;2023-06-14T12:31:08;7.37;;;4.50;;
5833;SDS011;2943;48.012;10.968;2023-06-14T12:33:36;11.70;;;4.87;;
5833;SDS011;2943;48.012;10.968;2023-06-14T12:36:07;7.57;;;3.70;;
5833;SDS011;2943;48.012;10.968;2023-06-14T12:38:35;6.27;;;4.17;;
5833;SDS011;2943;48.012;10.968;2023-06-14T12:41:02;5.83;;;3.27;;
5833;SDS011;2943;48.012;10.968;2023-06-14T12:43:30;6.90;;;3.93;;
5833;SDS011;2943;48.012;10.968;2023-06-14T12:45:59;4.10;;;3.57;;
5833;SDS011;2943;48.012;10.968;2023-06-14T12:48:27;5.87;;;3.90;;
5833;SDS011;2943;48.012;10.968;2023-06-14T12:50:56;9.53;;;5.50;;
5833;SDS011;2943;48.012;10.968;2023-06-14T12:53:25;6.63;;;4.07;;
5833;SDS011;2943;48.012;10.968;2023-06-14T12:55:52;4.53;;;3.80;;
5833;SDS011;2943;48.012;10.968;2023-06-14T12:58:19;12.63;;;4.23;;
5833;SDS011;2943;48.012;10.968;2023-06-14T13:00:49;6.00;;;3.63;;
5833;SDS011;2943;48.012;10.968;2023-06-14T13:03:17;9.23;;;3.90;;
5833;SDS011;2943;48.012;10.968;2023-06-14T13:05:44;5.20;;;4.17;;
5833;SDS011;2943;48.012;10.968;2023-06-14T13:08:11;5.03;;;3.90;;
5833;SDS011;2943;48.012;10.968;2023-06-14T13:10:41;6.87;;;3.60;;
5833;SDS011;2943;48.012;10.968;2023-06-14T13:13:08;9.10;;;3.90;;
5833;SDS011;2943;48.012;10.968;2023-06-14T13:15:38;4.70;;;4.17;;
5833;SDS011;2943;48.012;10.968;2023-06-14T13:18:05;5.87;;;4.03;;
5833;SDS011;2943;48.012;10.968;2023-06-14T13:20:32;6.20;;;3.53;;
5833;SDS011;2943;48.012;10.968;2023-06-14T13:22:59;7.15;;;4.20;;
5833;SDS011;2943;48.012;10.968;2023-06-14T13:25:28;7.50;;;4.03;;
5833;SDS011;2943;48.012;10.968;2023-06-14T13:27:56;9.20;;;4.30;;
5833;SDS011;2943;48.012;10.968;2023-06-14T13:30:23;6.67;;;4.37;;
5833;SDS011;2943;48.012;10.968;2023-06-14T13:32:50;10.80;;;4.40;;
5833;SDS011;2943;48.012;10.968;2023-06-14T13:35:17;6.30;;;4.40;;
5833;SDS011;2943;48.012;10.968;2023-06-14T13:37:44;5.87;;;4.10;;
5833;SDS011;2943;48.012;10.968;2023-06-14T13:40:11;4.10;;;3.70;;
5833;SDS011;2943;48.012;10.968;2023-06-14T13:42:38;4.07;;;3.77;;
5833;SDS011;2943;48.012;10.968;2023-06-14T13:45:07;4.30;;;3.90;;
5833;SDS011;2943;48.012;10.968;2023-06-14T13:47:36;5.30;;;4.30;;
5833;SDS011;2943;48.012;10.968;2023-06-14T13:50:03;7.10;;;4.10;;
5833;SDS011;2943;48.012;10.968;2023-06-14T13:52:31;4.77;;;4.13;;
5833;SDS011;2943;48.012;10.968;2023-06-14T13:54:58;7.40;;;4.30;;
5833;SDS011;2943;48.012;10.968;2023-06-14T13:57:25;9.90;;;4.03;;
5833;SDS011;2943;48.012;10.968;2023-06-14T13:59:52;6.43;;;3.90;;
5833;SDS011;2943;48.012;10.968;2023-06-14T14:02:21;7.37;;;4.10;;
5833;SDS011;2943;48.012;10.968;2023-06-14T14:04:48;4.07;;;3.73;;
5833;SDS011;2943;48.012;10.968;2023-06-14T14:07:18;3.67;;;3.37;;
5833;SDS011;2943;48.012;10.968;2023-06-14T14:09:45;7.63;;;4.20;;
5833;SDS011;2943;48.012;10.968;2023-06-14T14:12:12;11.33;;;4.43;;
5833;SDS011;2943;48.012;10.968;2023-06-14T14:14:40;9.90;;;4.60;;
5833;SDS011;2943;48.012;10.968;2023-06-14T14:17:07;5.30;;;4.03;;
5833;SDS011;2943;48.012;10.968;2023-06-14T14:19:35;5.10;;;4.27;;
5833;SDS011;2943;48.012;10.968;2023-06-14T14:22:02;4.67;;;4.20;;
5833;SDS011;2943;48.012;10.968;2023-06-14T14:24:29;5.97;;;4.00;;
5833;SDS011;2943;48.012;10.968;2023-06-14T14:26:56;10.80;;;4.27;;
5833;SDS011;2943;48.012;10.968;2023-06-14T14:29:25;4.43;;;4.03;;
5833;SDS011;2943;48.012;10.968;2023-06-14T14:31:54;7.57;;;4.93;;
5833;SDS011;2943;48.012;10.968;2023-06-14T14:34:21;3.83;;;3.50;;
5833;SDS011;2943;48.012;10.968;2023-06-14T14:36:49;5.90;;;4.20;;
5833;SDS011;2943;48.012;10.968;2023-06-14T14:39:16;4.30;;;3.90;;
5833;SDS011;2943;48.012;10.968;2023-06-14T14:41:42;6.03;;;3.80;;
5833;SDS011;2943;48.012;10.968;2023-06-14T14:44:09;6.60;;;3.73;;
5833;SDS011;2943;48.012;10.968;2023-06-14T14:46:36;8.37;;;3.90;;
5833;SDS011;2943;48.012;10.968;2023-06-14T14:49:03;7.67;;;3.63;;
5833;SDS011;2943;48.012;10.968;2023-06-14T14:51:30;6.90;;;4.10;;
5833;SDS011;2943;48.012;10.968;2023-06-14T14:53:58;6.87;;;3.87;;
5833;SDS011;2943;48.012;10.968;2023-06-14T14:56:25;6.30;;;3.87;;
5833;SDS011;2943;48.012;10.968;2023-06-14T14:58:52;4.80;;;4.23;;
5833;SDS011;2943;48.012;10.968;2023-06-14T15:01:19;7.27;;;4.27;;
5833;SDS011;2943;48.012;10.968;2023-06-14T15:03:46;4.43;;;4.00;;
5833;SDS011;2943;48.012;10.968;2023-06-14T15:06:12;4.73;;;4.00;;
5833;SDS011;2943;48.012;10.968;2023-06-14T15:08:39;6.93;;;4.10;;
5833;SDS011;2943;48.012;10.968;2023-06-14T15:11:07;7.63;;;4.07;;
5833;SDS011;2943;48.012;10.968;2023-06-14T15:13:34;4.83;;;4.13;;
5833;SDS011;2943;48.012;10.968;2023-06-14T15:16:00;8.90;;;3.83;;